HTDA/DAR METAR and TAF weather

Enter ICAO airport designator
Station Type Date Time Source
HTDA METAR 2019/12/07 09:00 UTC NOAA

HTDA 070900Z 06008KT 9999 FEW023 BKN025 FEW027CB 33/25 Q1009 NOSIG


Station Type Date Time Source
HTDA Decoded METAR 2019/12/07 09:00 UTC NOAA

Dar Es Salaam Airport, Tanzania (HTDA) 06-52S 039-12E 55M
Dec 07, 2019 - 04:00 AM EST / 2019.12.07 0900 UTC
Wind: from the ENE (060 degrees) at 9 MPH (8 KT):0
Visibility: greater than 7 mile(s):0
Sky conditions: mostly cloudy
Weather: Cumulonimbus clouds observed
Temperature: 91 F (33 C)
Heat index: 103.5 F (39.7 C):1
Dew Point: 77 F (25 C)
Relative Humidity: 62%
Pressure (altimeter): 29.80 in. Hg (1009 hPa)
ob: HTDA 070900Z 06008KT 9999 FEW023 BKN025 FEW027CB 33/25 Q1009 NOSIG
cycle: 9

Station Type Date Time Source
HTDA TAF 2019/12/07 06:42 UTC NOAA

TAF TAF HTDA 070500Z 0706/0812 18010KT 9999 SCT017 FEW018CB
TEMPO 0707/0710 TSRA BKN022 FEW023CB
BECMG 0714/0717 12010KT SCT025

Example: see airport list